createdAt,value
2023-04-14T00:00:35.913Z,71.60
2023-04-14T00:03:03.086Z,71.42
2023-04-14T00:05:30.605Z,69.28
2023-04-14T00:07:58.008Z,70.80
2023-04-14T00:10:25.326Z,69.31
2023-04-14T00:12:52.121Z,67.02
2023-04-14T00:15:19.176Z,67.79
2023-04-14T00:17:46.002Z,69.51
2023-04-14T00:20:12.854Z,70.51
2023-04-14T00:22:39.484Z,69.32
2023-04-14T00:25:06.233Z,68.36
2023-04-14T00:27:32.874Z,68.57
2023-04-14T00:29:59.494Z,67.94
2023-04-14T00:32:26.147Z,68.11
2023-04-14T00:34:52.778Z,66.03
2023-04-14T00:37:19.560Z,67.88
2023-04-14T00:39:46.273Z,66.16
2023-04-14T00:42:12.941Z,67.15
2023-04-14T00:44:39.606Z,65.12
2023-04-14T00:47:06.342Z,64.59
2023-04-14T00:49:33.291Z,64.51
2023-04-14T00:52:00.108Z,65.51
2023-04-14T00:54:26.852Z,64.72
2023-04-14T00:56:54.147Z,65.61
2023-04-14T00:59:21.111Z,64.62
2023-04-14T01:01:47.820Z,64.65
2023-04-14T01:04:15.945Z,65.76
2023-04-14T01:06:42.728Z,65.08
2023-04-14T01:09:09.718Z,67.08
2023-04-14T01:12:13.835Z,66.69
2023-04-14T01:15:11.873Z,66.69
2023-04-14T01:17:45.536Z,65.69
2023-04-14T01:20:31.363Z,66.81
2023-04-14T01:23:09.671Z,66.29
2023-04-14T01:25:54.743Z,65.45
2023-04-14T01:28:45.382Z,67.26
2023-04-14T01:31:20.893Z,65.44
2023-04-14T01:33:55.155Z,65.42
2023-04-14T01:36:26.845Z,66.05
2023-04-14T01:38:55.611Z,64.56
2023-04-14T01:41:23.308Z,66.31
2023-04-14T01:43:54.110Z,65.60
2023-04-14T01:46:21.864Z,64.24
2023-04-14T01:48:50.618Z,65.93
2023-04-14T01:51:20.029Z,64.41
2023-04-14T01:53:49.195Z,64.03
2023-04-14T01:56:17.868Z,64.36
2023-04-14T01:58:46.765Z,64.53
2023-04-14T02:01:14.044Z,66.41
2023-04-14T02:03:42.828Z,64.88
2023-04-14T02:06:12.888Z,63.81
2023-04-14T02:08:41.939Z,64.44
2023-04-14T02:11:11.446Z,65.00
2023-04-14T02:13:41.376Z,64.00
2023-04-14T02:16:10.635Z,65.46
2023-04-14T02:18:39.372Z,65.48
2023-04-14T02:21:06.725Z,64.37
2023-04-14T02:23:33.514Z,65.28
2023-04-14T02:26:12.257Z,64.68
2023-04-14T02:28:46.410Z,64.55
2023-04-14T02:31:15.250Z,65.87
2023-04-14T02:33:44.410Z,64.81
2023-04-14T02:36:17.443Z,65.47
2023-04-14T02:38:53.366Z,66.17
2023-04-14T02:41:28.931Z,65.54
2023-04-14T02:44:18.924Z,65.25
2023-04-14T02:47:06.416Z,66.12
2023-04-14T02:49:53.373Z,66.55
2023-04-14T02:52:22.457Z,66.25
2023-04-14T02:54:50.525Z,67.30
2023-04-14T02:57:17.797Z,67.68
2023-04-14T02:59:46.108Z,66.33
2023-04-14T03:02:13.652Z,65.70
2023-04-14T03:04:40.512Z,66.05
2023-04-14T03:07:09.230Z,66.11
2023-04-14T03:09:36.513Z,66.66
2023-04-14T03:12:04.717Z,64.82
2023-04-14T03:14:31.657Z,65.26
2023-04-14T03:16:59.083Z,65.03
2023-04-14T03:19:26.600Z,66.59
2023-04-14T03:21:53.299Z,66.15
2023-04-14T03:24:22.864Z,64.94
2023-04-14T03:26:52.416Z,66.78
2023-04-14T03:29:21.765Z,67.09
2023-04-14T03:31:49.789Z,65.43
2023-04-14T03:34:18.078Z,67.09
2023-04-14T03:36:45.985Z,67.24
2023-04-14T03:39:14.218Z,68.34
2023-04-14T03:41:42.537Z,68.43
2023-04-14T03:44:11.297Z,67.45
2023-04-14T03:46:38.069Z,68.13
2023-04-14T03:49:07.789Z,69.40
2023-04-14T03:51:36.103Z,67.69
2023-04-14T03:54:05.923Z,67.49
2023-04-14T03:56:34.557Z,69.06
2023-04-14T03:59:02.689Z,68.94
2023-04-14T04:01:32.196Z,69.67
2023-04-14T04:04:01.356Z,68.66
2023-04-14T04:06:29.454Z,67.06
2023-04-14T04:08:56.783Z,68.46
2023-04-14T04:11:26.896Z,68.17
2023-04-14T04:13:55.792Z,66.41
2023-04-14T04:16:24.685Z,66.77
2023-04-14T04:18:53.319Z,66.65
2023-04-14T04:21:21.565Z,67.58
2023-04-14T04:23:53.705Z,68.17
2023-04-14T04:26:20.433Z,67.52
2023-04-14T04:28:47.799Z,67.20
2023-04-14T04:31:16.100Z,66.99
2023-04-14T04:33:45.294Z,67.83
2023-04-14T04:36:13.245Z,67.83
2023-04-14T04:38:39.966Z,67.18
2023-04-14T04:41:06.605Z,67.54
2023-04-14T04:43:33.190Z,69.81
2023-04-14T04:46:17.150Z,69.13
2023-04-14T04:48:43.818Z,67.19
2023-04-14T04:51:10.457Z,69.92
2023-04-14T04:53:37.098Z,68.78
2023-04-14T04:56:04.053Z,68.35
2023-04-14T04:58:30.669Z,68.18
2023-04-14T05:00:57.363Z,68.41
2023-04-14T05:03:24.144Z,67.59
2023-04-14T05:05:50.761Z,68.00
2023-04-14T05:08:17.393Z,67.55
2023-04-14T05:10:44.365Z,69.00
2023-04-14T05:13:11.085Z,68.85
2023-04-14T05:15:37.796Z,67.61
2023-04-14T05:18:04.543Z,66.58
2023-04-14T05:20:32.155Z,67.29
2023-04-14T05:22:59.572Z,68.13
2023-04-14T05:25:26.232Z,68.94
2023-04-14T05:27:53.082Z,69.83
2023-04-14T05:30:19.733Z,68.50
2023-04-14T05:32:46.419Z,70.45
2023-04-14T05:35:13.144Z,70.46
2023-04-14T05:37:39.802Z,72.13
2023-04-14T05:40:07.334Z,73.69
2023-04-14T05:42:33.922Z,73.67
2023-04-14T05:45:00.529Z,73.80
2023-04-14T05:47:27.243Z,72.98
2023-04-14T05:49:53.925Z,72.01
2023-04-14T05:52:20.554Z,72.02
2023-04-14T05:54:47.169Z,71.47
2023-04-14T05:57:13.837Z,71.44
2023-04-14T05:59:41.735Z,69.75
2023-04-14T06:02:08.516Z,69.57
2023-04-14T06:04:35.360Z,70.67
2023-04-14T06:07:02.233Z,70.48
2023-04-14T06:09:28.948Z,71.02
2023-04-14T06:11:55.563Z,71.16
2023-04-14T06:14:22.227Z,70.67
2023-04-14T06:16:48.879Z,71.90
2023-04-14T06:19:15.512Z,70.38
2023-04-14T06:21:42.199Z,72.34
2023-04-14T06:24:08.841Z,71.81
2023-04-14T06:26:35.523Z,73.57
2023-04-14T06:29:02.403Z,69.66
2023-04-14T06:31:29.254Z,71.15
2023-04-14T06:33:55.922Z,71.72
2023-04-14T06:36:22.520Z,72.53
2023-04-14T06:38:49.193Z,70.16
2023-04-14T06:41:15.891Z,69.55
2023-04-14T06:43:42.539Z,70.86
2023-04-14T06:46:09.197Z,71.00
2023-04-14T06:48:35.988Z,70.24
2023-04-14T06:51:02.752Z,71.08
2023-04-14T06:53:29.421Z,70.94
2023-04-14T06:55:56.183Z,69.41
2023-04-14T06:58:22.863Z,72.12
2023-04-14T07:00:57.546Z,72.57
2023-04-14T07:03:24.910Z,71.60
2023-04-14T10:43:50.348Z,100.00
2023-04-14T10:46:18.622Z,100.00
2023-04-14T10:48:49.335Z,100.00
2023-04-14T10:51:17.997Z,100.00
2023-04-14T10:53:50.829Z,100.00
2023-04-14T10:56:20.595Z,100.00
2023-04-14T10:58:58.018Z,100.00
2023-04-14T11:01:32.730Z,100.00
2023-04-14T11:04:17.174Z,100.00
2023-04-14T11:06:46.969Z,100.00
2023-04-14T11:09:32.130Z,100.00
2023-04-14T11:12:22.514Z,100.00
2023-04-14T11:14:49.207Z,100.00
2023-04-14T11:17:22.559Z,100.00
2023-04-14T11:19:53.681Z,100.00
2023-04-14T11:22:43.576Z,100.00
2023-04-14T11:25:15.225Z,100.00
2023-04-14T11:27:42.802Z,100.00
2023-04-14T11:30:14.194Z,100.00
2023-04-14T11:32:57.680Z,100.00
2023-04-14T11:35:28.875Z,100.00
2023-04-14T11:37:59.794Z,100.00
2023-04-14T11:40:27.473Z,100.00
2023-04-14T11:42:56.208Z,100.00
2023-04-14T11:45:28.159Z,100.00
2023-04-14T11:48:02.518Z,100.00
2023-04-14T11:50:36.280Z,100.00
2023-04-14T11:53:11.614Z,100.00
2023-04-14T11:55:43.210Z,100.00
2023-04-14T11:58:11.099Z,100.00
2023-04-14T12:00:37.886Z,100.00
2023-04-14T12:03:05.152Z,100.00
2023-04-14T12:05:32.558Z,100.00
2023-04-14T12:08:04.920Z,100.00
2023-04-14T12:10:32.348Z,100.00
2023-04-14T12:13:01.862Z,100.00
2023-04-14T12:15:33.278Z,100.00
2023-04-14T12:18:00.714Z,100.00
2023-04-14T12:20:28.349Z,100.00
2023-04-14T12:23:02.817Z,100.00
2023-04-14T12:25:33.014Z,100.00
2023-04-14T12:28:00.282Z,100.00
2023-04-14T12:30:26.883Z,100.00
2023-04-14T12:32:53.685Z,100.00
2023-04-14T12:35:24.016Z,100.00
2023-04-14T12:37:51.528Z,100.00
2023-04-14T12:40:37.920Z,100.00
2023-04-14T12:43:04.755Z,100.00
2023-04-14T12:45:44.645Z,100.00
2023-04-14T12:48:13.350Z,100.00
2023-04-14T12:50:40.092Z,100.00
2023-04-14T12:53:26.205Z,100.00
2023-04-14T12:56:13.650Z,100.00
2023-04-14T12:58:43.608Z,100.00
2023-04-14T13:01:11.380Z,100.00
2023-04-14T13:03:49.605Z,100.00
2023-04-14T13:06:18.650Z,100.00
2023-04-14T13:08:52.965Z,100.00
2023-04-14T13:11:23.481Z,100.00
2023-04-14T13:13:53.856Z,100.00
2023-04-14T13:16:20.921Z,100.00
2023-04-14T13:18:48.663Z,100.00
2023-04-14T13:21:15.696Z,100.00
2023-04-14T13:23:42.493Z,100.00
2023-04-14T13:26:09.251Z,100.00
2023-04-14T13:28:36.070Z,100.00
2023-04-14T13:31:02.696Z,100.00
2023-04-14T13:33:29.338Z,100.00
2023-04-14T13:35:56.433Z,100.00
2023-04-14T13:38:23.173Z,100.00
2023-04-14T13:40:49.852Z,100.00
2023-04-14T13:43:18.057Z,100.00
2023-04-14T13:45:44.916Z,100.00
2023-04-14T13:48:11.806Z,100.00
2023-04-14T13:50:40.176Z,100.00
2023-04-14T13:53:06.821Z,100.00
2023-04-14T13:55:34.478Z,100.00
2023-04-14T13:58:01.148Z,100.00
2023-04-14T14:00:27.864Z,100.00
2023-04-14T14:02:54.738Z,100.00
2023-04-14T14:05:21.545Z,100.00
2023-04-14T14:07:51.315Z,100.00
2023-04-14T14:10:18.104Z,100.00
2023-04-14T14:12:45.018Z,100.00
2023-04-14T14:15:11.852Z,100.00
2023-04-14T14:17:38.799Z,100.00
2023-04-14T14:20:06.064Z,100.00
2023-04-14T14:22:32.692Z,100.00
2023-04-14T14:25:10.780Z,100.00
2023-04-14T14:27:42.437Z,100.00
2023-04-14T14:30:09.580Z,100.00
2023-04-14T14:32:36.260Z,100.00
2023-04-14T14:35:04.205Z,100.00
2023-04-14T14:37:30.882Z,100.00
2023-04-14T14:39:57.587Z,100.00
2023-04-14T14:42:24.217Z,100.00
2023-04-14T14:44:50.809Z,100.00
2023-04-14T14:47:17.735Z,100.00
2023-04-14T14:49:56.544Z,100.00
2023-04-14T14:52:30.192Z,100.00
2023-04-14T14:54:56.995Z,100.00
2023-04-14T14:57:23.628Z,100.00
2023-04-14T14:59:50.261Z,100.00
2023-04-14T15:02:17.048Z,100.00
2023-04-14T15:04:43.989Z,100.00
2023-04-14T15:07:10.679Z,100.00
2023-04-14T15:09:37.324Z,100.00
2023-04-14T15:12:03.999Z,100.00
2023-04-14T15:14:30.671Z,100.00
2023-04-14T15:16:57.471Z,100.00
2023-04-14T15:19:24.256Z,100.00
2023-04-14T15:21:51.455Z,100.00
2023-04-14T15:24:18.210Z,100.00
2023-04-14T15:26:44.825Z,100.00
2023-04-14T15:29:14.527Z,100.00
2023-04-14T15:31:41.130Z,100.00
2023-04-14T15:34:07.824Z,100.00
2023-04-14T15:36:34.445Z,100.00
2023-04-14T15:39:01.082Z,100.00
2023-04-14T15:41:27.876Z,100.00
2023-04-14T15:43:54.504Z,100.00
2023-04-14T15:46:21.291Z,100.00
2023-04-14T15:48:47.994Z,100.00
2023-04-14T15:51:14.624Z,100.00
2023-04-14T15:53:41.316Z,100.00
2023-04-14T15:56:07.928Z,100.00
2023-04-14T15:58:34.585Z,100.00
2023-04-14T16:01:06.758Z,100.00
2023-04-14T16:03:33.751Z,100.00
2023-04-14T16:06:04.432Z,100.00
2023-04-14T16:08:31.046Z,100.00
2023-04-14T16:10:57.837Z,100.00
2023-04-14T16:13:24.504Z,100.00
2023-04-14T16:15:51.393Z,100.00
2023-04-14T16:18:18.076Z,100.00
2023-04-14T16:20:44.787Z,100.00
2023-04-14T16:23:11.567Z,100.00
2023-04-14T16:25:38.275Z,100.00
2023-04-14T16:28:04.953Z,100.00
2023-04-14T16:30:31.724Z,100.00
2023-04-14T16:32:58.541Z,100.00
2023-04-14T16:35:25.235Z,100.00
2023-04-14T16:37:51.843Z,100.00
2023-04-14T16:40:18.606Z,100.00
2023-04-14T16:42:45.191Z,100.00
2023-04-14T16:45:11.847Z,100.00
2023-04-14T16:47:38.623Z,100.00
2023-04-14T16:50:05.868Z,100.00
2023-04-14T16:52:32.500Z,100.00
2023-04-14T16:54:59.462Z,100.00
2023-04-14T16:57:26.510Z,100.00
2023-04-14T16:59:53.262Z,100.00
2023-04-14T17:02:20.062Z,100.00
2023-04-14T17:04:46.876Z,100.00
2023-04-14T17:07:13.662Z,100.00
2023-04-14T17:09:40.804Z,100.00
2023-04-14T17:12:07.507Z,100.00
2023-04-14T17:14:35.110Z,100.00
2023-04-14T17:17:02.337Z,100.00
2023-04-14T17:19:29.006Z,100.00
2023-04-14T17:21:55.656Z,100.00
2023-04-14T17:24:22.336Z,100.00
2023-04-14T17:26:49.089Z,100.00
2023-04-14T17:29:15.698Z,100.00
2023-04-14T17:31:42.683Z,100.00
2023-04-14T17:34:09.455Z,100.00
2023-04-14T17:36:36.180Z,100.00
2023-04-14T17:39:02.986Z,100.00
2023-04-14T17:41:30.045Z,100.00
2023-04-14T17:43:56.720Z,100.00
2023-04-14T17:46:23.519Z,100.00
2023-04-14T17:48:50.166Z,100.00
2023-04-14T17:51:16.812Z,100.00
2023-04-14T17:53:43.502Z,100.00
2023-04-14T17:56:10.842Z,100.00
2023-04-14T17:58:37.520Z,100.00
2023-04-14T18:01:04.519Z,100.00
2023-04-14T18:03:31.345Z,100.00
2023-04-14T18:05:58.003Z,100.00
2023-04-14T18:08:24.667Z,100.00
2023-04-14T18:10:51.249Z,100.00
2023-04-14T18:13:17.930Z,100.00
2023-04-14T18:15:44.676Z,100.00
2023-04-14T18:18:11.288Z,100.00
2023-04-14T18:20:37.944Z,100.00
2023-04-14T18:23:04.627Z,100.00
2023-04-14T18:26:26.236Z,100.00
2023-04-14T18:28:18.786Z,100.00
2023-04-14T18:30:52.934Z,100.00
2023-04-14T18:33:19.684Z,100.00
2023-04-14T18:35:53.403Z,100.00
2023-04-14T18:38:20.230Z,100.00
2023-04-14T18:40:47.664Z,100.00
2023-04-14T18:43:15.295Z,100.00
2023-04-14T18:45:49.060Z,100.00
2023-04-14T18:48:16.912Z,100.00
2023-04-14T18:50:44.869Z,100.00
2023-04-14T18:53:12.281Z,100.00
2023-04-14T18:55:45.402Z,100.00
2023-04-14T18:58:15.608Z,100.00
2023-04-14T19:00:44.688Z,100.00
2023-04-14T19:03:11.517Z,100.00
2023-04-14T19:05:38.248Z,100.00
2023-04-14T19:08:05.102Z,100.00
2023-04-14T19:10:33.842Z,100.00
2023-04-14T19:13:00.475Z,100.00
2023-04-14T19:15:27.273Z,100.00
2023-04-14T19:17:54.411Z,100.00
2023-04-14T19:20:21.704Z,100.00
2023-04-14T19:22:48.914Z,100.00
2023-04-14T19:25:15.914Z,100.00
2023-04-14T19:27:43.450Z,100.00
2023-04-14T19:30:10.711Z,100.00
2023-04-14T19:32:37.474Z,100.00
2023-04-14T19:35:04.947Z,100.00
2023-04-14T19:37:31.767Z,100.00
2023-04-14T19:39:58.415Z,100.00
2023-04-14T19:42:25.061Z,100.00
2023-04-14T19:44:51.790Z,100.00
2023-04-14T19:47:18.595Z,100.00
2023-04-14T19:49:46.383Z,100.00
2023-04-14T19:52:12.987Z,100.00
2023-04-14T19:54:39.575Z,100.00
2023-04-14T19:57:06.218Z,100.00
2023-04-14T19:59:32.917Z,100.00
2023-04-14T20:01:59.568Z,100.00
2023-04-14T20:04:26.771Z,100.00
2023-04-14T20:06:54.030Z,100.00
2023-04-14T20:09:20.688Z,100.00
2023-04-14T20:11:48.767Z,100.00
2023-04-14T20:14:15.385Z,100.00
2023-04-14T20:16:42.070Z,100.00
2023-04-14T20:19:08.953Z,100.00
2023-04-14T20:21:35.552Z,100.00
2023-04-14T20:24:02.223Z,100.00
2023-04-14T20:26:28.832Z,100.00
2023-04-14T20:28:55.575Z,100.00
2023-04-14T20:31:22.316Z,100.00
2023-04-14T20:33:48.994Z,100.00
2023-04-14T20:36:15.618Z,100.00
2023-04-14T20:38:42.503Z,100.00
2023-04-14T20:41:09.218Z,100.00
2023-04-14T20:43:35.856Z,100.00
2023-04-14T20:46:03.153Z,100.00
2023-04-14T20:48:30.781Z,100.00
2023-04-14T20:50:57.752Z,100.00
2023-04-14T20:53:24.416Z,100.00
2023-04-14T20:55:51.472Z,100.00
2023-04-14T20:58:18.116Z,100.00
2023-04-14T21:00:44.713Z,100.00
2023-04-14T21:03:11.498Z,100.00
2023-04-14T21:05:38.256Z,100.00
2023-04-14T21:08:05.001Z,100.00
2023-04-14T21:10:32.116Z,100.00
2023-04-14T21:15:27.033Z,100.00
2023-04-14T21:15:57.361Z,100.00
2023-04-14T21:18:24.112Z,100.00
2023-04-14T21:20:50.902Z,100.00
2023-04-14T21:23:17.513Z,100.00
2023-04-14T21:25:44.229Z,100.00
2023-04-14T21:28:10.853Z,100.00
2023-04-14T21:30:37.519Z,100.00
2023-04-14T21:33:05.474Z,100.00
2023-04-14T21:35:34.542Z,100.00
2023-04-14T21:38:01.246Z,100.00
2023-04-14T21:40:28.126Z,100.00
2023-04-14T21:42:54.702Z,100.00
2023-04-14T21:45:21.298Z,100.00
2023-04-14T21:47:48.050Z,100.00
2023-04-14T21:50:14.740Z,100.00
2023-04-14T21:52:41.324Z,100.00
2023-04-14T21:55:08.464Z,100.00
2023-04-14T21:57:44.390Z,100.00
2023-04-14T22:00:17.019Z,100.00
2023-04-14T22:02:44.542Z,100.00
2023-04-14T22:05:11.967Z,100.00
2023-04-14T22:07:38.693Z,100.00
2023-04-14T22:10:05.794Z,100.00
2023-04-14T22:12:33.221Z,100.00
2023-04-14T22:15:09.580Z,100.00
2023-04-14T22:17:39.148Z,100.00
2023-04-14T22:20:06.538Z,100.00
2023-04-14T22:22:33.910Z,100.00
2023-04-14T22:25:00.557Z,100.00
2023-04-14T22:27:27.519Z,100.00
2023-04-14T22:29:54.195Z,100.00
2023-04-14T22:32:20.897Z,100.00
2023-04-14T22:34:47.484Z,100.00
2023-04-14T22:37:14.230Z,100.00
2023-04-14T22:39:40.875Z,100.00
2023-04-14T22:42:07.455Z,100.00
2023-04-14T22:44:34.190Z,100.00
2023-04-14T22:47:00.867Z,100.00
2023-04-14T22:49:27.473Z,100.00
2023-04-14T22:51:54.184Z,100.00
2023-04-14T22:54:20.942Z,100.00
2023-04-14T22:56:47.660Z,100.00
2023-04-14T22:59:14.300Z,100.00
2023-04-14T23:01:40.929Z,100.00
2023-04-14T23:04:07.685Z,100.00
2023-04-14T23:06:34.379Z,100.00
2023-04-14T23:09:01.331Z,100.00
2023-04-14T23:11:28.118Z,100.00
2023-04-14T23:13:54.727Z,100.00
2023-04-14T23:16:21.564Z,100.00
2023-04-14T23:18:48.350Z,100.00
2023-04-14T23:21:15.684Z,100.00
2023-04-14T23:23:42.351Z,100.00
2023-04-14T23:26:09.198Z,100.00
2023-04-14T23:28:35.944Z,100.00
2023-04-14T23:31:02.630Z,100.00
2023-04-14T23:33:29.282Z,100.00
2023-04-14T23:35:58.272Z,100.00
2023-04-14T23:38:24.956Z,100.00
2023-04-14T23:40:51.580Z,100.00
2023-04-14T23:43:18.192Z,100.00
2023-04-14T23:45:44.854Z,100.00
2023-04-14T23:48:11.503Z,100.00
2023-04-14T23:51:02.190Z,100.00
2023-04-14T23:53:25.479Z,100.00
2023-04-14T23:55:52.117Z,100.00
2023-04-14T23:58:26.347Z,100.00
